sensor_id;sensor_type;location;lat;lon;timestamp;temperature;humidity
354;DHT22;165;53.592;10.044;2023-03-08T10:26:33;4.80;99.90
354;DHT22;165;53.592;10.044;2023-03-08T10:28:59;4.90;99.90
354;DHT22;165;53.592;10.044;2023-03-08T10:31:29;4.90;99.90
354;DHT22;165;53.592;10.044;2023-03-08T10:34:17;4.80;99.90
354;DHT22;165;53.592;10.044;2023-03-08T10:36:49;4.60;99.90
354;DHT22;165;53.592;10.044;2023-03-08T10:39:15;4.50;99.90
354;DHT22;165;53.592;10.044;2023-03-08T10:41:44;4.50;99.90
354;DHT22;165;53.592;10.044;2023-03-08T10:44:15;4.40;99.90
354;DHT22;165;53.592;10.044;2023-03-08T10:46:52;4.50;99.90
354;DHT22;165;53.592;10.044;2023-03-08T10:49:19;4.60;99.90
354;DHT22;165;53.592;10.044;2023-03-08T10:51:58;4.70;99.90
354;DHT22;165;53.592;10.044;2023-03-08T10:54:24;4.80;99.90
354;DHT22;165;53.592;10.044;2023-03-08T10:56:59;5.00;99.90
354;DHT22;165;53.592;10.044;2023-03-08T10:59:33;5.00;99.90
354;DHT22;165;53.592;10.044;2023-03-08T11:02:21;5.10;99.90
354;DHT22;165;53.592;10.044;2023-03-08T11:05:20;5.10;99.90
354;DHT22;165;53.592;10.044;2023-03-08T11:07:56;5.20;99.90
354;DHT22;165;53.592;10.044;2023-03-08T11:10:23;5.40;99.90
354;DHT22;165;53.592;10.044;2023-03-08T11:13:19;5.60;99.90
354;DHT22;165;53.592;10.044;2023-03-08T11:15:58;5.70;99.90
354;DHT22;165;53.592;10.044;2023-03-08T11:24:31;6.30;99.90
354;DHT22;165;53.592;10.044;2023-03-08T11:27:17;6.50;99.90
354;DHT22;165;53.592;10.044;2023-03-08T11:38:19;6.50;99.90
354;DHT22;165;53.592;10.044;2023-03-08T11:46:21;6.20;99.90
354;DHT22;165;53.592;10.044;2023-03-08T11:53:59;6.40;99.90
354;DHT22;165;53.592;10.044;2023-03-08T11:59:02;6.60;99.90
354;DHT22;165;53.592;10.044;2023-03-08T12:01:31;6.70;99.90
354;DHT22;165;53.592;10.044;2023-03-08T12:04:02;6.80;99.90
354;DHT22;165;53.592;10.044;2023-03-08T12:06:40;6.80;99.90
354;DHT22;165;53.592;10.044;2023-03-08T12:11:39;6.80;99.90
354;DHT22;165;53.592;10.044;2023-03-08T12:14:16;6.80;99.90
354;DHT22;165;53.592;10.044;2023-03-08T12:16:47;6.90;99.90
354;DHT22;165;53.592;10.044;2023-03-08T12:19:23;7.00;99.90
354;DHT22;165;53.592;10.044;2023-03-08T12:22:01;6.80;99.90
354;DHT22;165;53.592;10.044;2023-03-08T12:26:55;7.40;99.90
354;DHT22;165;53.592;10.044;2023-03-08T12:29:25;7.40;99.90
354;DHT22;165;53.592;10.044;2023-03-08T12:31:53;7.30;99.90
354;DHT22;165;53.592;10.044;2023-03-08T12:36:59;7.20;99.90
354;DHT22;165;53.592;10.044;2023-03-08T12:39:29;7.10;99.90
354;DHT22;165;53.592;10.044;2023-03-08T12:44:35;6.80;99.90
354;DHT22;165;53.592;10.044;2023-03-08T12:47:02;6.40;99.90
354;DHT22;165;53.592;10.044;2023-03-08T12:49:41;6.10;99.90
354;DHT22;165;53.592;10.044;2023-03-08T12:54:42;5.80;99.90
354;DHT22;165;53.592;10.044;2023-03-08T12:57:15;5.80;99.90
354;DHT22;165;53.592;10.044;2023-03-08T12:59:43;6.00;99.90
354;DHT22;165;53.592;10.044;2023-03-08T13:02:20;5.80;99.90
354;DHT22;165;53.592;10.044;2023-03-08T13:04:46;5.90;99.90
354;DHT22;165;53.592;10.044;2023-03-08T13:09:57;5.60;99.90
354;DHT22;165;53.592;10.044;2023-03-08T13:12:27;5.70;99.90
354;DHT22;165;53.592;10.044;2023-03-08T13:15:16;5.80;99.90
354;DHT22;165;53.592;10.044;2023-03-08T13:17:49;5.90;99.90
354;DHT22;165;53.592;10.044;2023-03-08T13:20:16;6.00;99.90
354;DHT22;165;53.592;10.044;2023-03-08T13:28:21;6.10;99.90
354;DHT22;165;53.592;10.044;2023-03-08T13:30:34;6.20;99.90
354;DHT22;165;53.592;10.044;2023-03-08T13:33:02;6.30;99.90
354;DHT22;165;53.592;10.044;2023-03-08T13:35:30;6.10;99.90
354;DHT22;165;53.592;10.044;2023-03-08T13:37:56;6.10;99.90
354;DHT22;165;53.592;10.044;2023-03-08T13:40:22;6.00;99.90
354;DHT22;165;53.592;10.044;2023-03-08T13:42:55;6.00;99.90
354;DHT22;165;53.592;10.044;2023-03-08T13:45:21;5.80;99.90
354;DHT22;165;53.592;10.044;2023-03-08T13:47:46;5.80;99.90
354;DHT22;165;53.592;10.044;2023-03-08T13:50:19;6.10;99.90
354;DHT22;165;53.592;10.044;2023-03-08T13:52:45;6.20;99.90
354;DHT22;165;53.592;10.044;2023-03-08T13:55:16;6.30;99.90
354;DHT22;165;53.592;10.044;2023-03-08T13:57:45;6.60;99.90
354;DHT22;165;53.592;10.044;2023-03-08T14:00:28;6.70;99.90
354;DHT22;165;53.592;10.044;2023-03-08T14:02:54;6.80;99.90
354;DHT22;165;53.592;10.044;2023-03-08T14:05:22;6.60;99.90
354;DHT22;165;53.592;10.044;2023-03-08T14:07:58;6.70;99.90
354;DHT22;165;53.592;10.044;2023-03-08T14:10:25;6.60;99.90
354;DHT22;165;53.592;10.044;2023-03-08T14:12:58;6.30;99.90
354;DHT22;165;53.592;10.044;2023-03-08T14:15:27;6.40;99.90
354;DHT22;165;53.592;10.044;2023-03-08T14:17:53;6.40;99.90
354;DHT22;165;53.592;10.044;2023-03-08T14:20:19;6.30;99.90
354;DHT22;165;53.592;10.044;2023-03-08T14:22:46;6.20;99.90
354;DHT22;165;53.592;10.044;2023-03-08T14:25:29;6.30;99.90
354;DHT22;165;53.592;10.044;2023-03-08T14:27:54;6.20;99.90
354;DHT22;165;53.592;10.044;2023-03-08T14:30:24;6.00;99.90
354;DHT22;165;53.592;10.044;2023-03-08T14:33:24;5.70;99.90
354;DHT22;165;53.592;10.044;2023-03-08T14:35:44;5.60;99.90
354;DHT22;165;53.592;10.044;2023-03-08T14:38:14;5.60;99.90
354;DHT22;165;53.592;10.044;2023-03-08T14:40:47;5.50;99.90
354;DHT22;165;53.592;10.044;2023-03-08T14:43:17;5.50;99.90
354;DHT22;165;53.592;10.044;2023-03-08T14:51:06;5.40;99.90
354;DHT22;165;53.592;10.044;2023-03-08T14:53:58;5.50;99.90
354;DHT22;165;53.592;10.044;2023-03-08T14:56:27;5.50;99.90
354;DHT22;165;53.592;10.044;2023-03-08T14:59:11;5.00;99.90
354;DHT22;165;53.592;10.044;2023-03-08T15:01:37;5.60;99.90
354;DHT22;165;53.592;10.044;2023-03-08T15:04:05;5.50;99.90
354;DHT22;165;53.592;10.044;2023-03-08T15:06:45;5.30;99.90
354;DHT22;165;53.592;10.044;2023-03-08T15:09:14;5.70;99.90
354;DHT22;165;53.592;10.044;2023-03-08T15:11:40;5.70;99.90
354;DHT22;165;53.592;10.044;2023-03-08T15:14:05;5.60;99.90
354;DHT22;165;53.592;10.044;2023-03-08T15:16:38;6.10;99.90
354;DHT22;165;53.592;10.044;2023-03-08T15:19:08;7.20;99.90
354;DHT22;165;53.592;10.044;2023-03-08T15:21:33;7.00;99.90
354;DHT22;165;53.592;10.044;2023-03-08T15:24:04;5.10;99.90
354;DHT22;165;53.592;10.044;2023-03-08T15:26:30;5.10;99.90
354;DHT22;165;53.592;10.044;2023-03-08T16:00:03;4.90;99.90
354;DHT22;165;53.592;10.044;2023-03-08T16:02:38;4.80;99.90
354;DHT22;165;53.592;10.044;2023-03-08T16:05:07;4.80;99.90
354;DHT22;165;53.592;10.044;2023-03-08T16:10:31;4.70;99.90
354;DHT22;165;53.592;10.044;2023-03-08T16:12:57;4.70;99.90
354;DHT22;165;53.592;10.044;2023-03-08T16:18:07;4.70;99.90
354;DHT22;165;53.592;10.044;2023-03-08T16:20:38;4.50;99.90
354;DHT22;165;53.592;10.044;2023-03-08T16:23:03;4.20;99.90
354;DHT22;165;53.592;10.044;2023-03-08T16:25:32;4.30;99.90
354;DHT22;165;53.592;10.044;2023-03-08T16:27:57;4.20;99.90
354;DHT22;165;53.592;10.044;2023-03-08T16:30:23;4.10;99.90
354;DHT22;165;53.592;10.044;2023-03-08T16:32:51;4.80;99.90
354;DHT22;165;53.592;10.044;2023-03-08T16:35:17;4.00;99.90
354;DHT22;165;53.592;10.044;2023-03-08T16:37:42;4.00;99.90
354;DHT22;165;53.592;10.044;2023-03-08T16:40:08;4.00;99.90
354;DHT22;165;53.592;10.044;2023-03-08T16:42:33;4.00;99.90
354;DHT22;165;53.592;10.044;2023-03-08T16:44:59;3.90;99.90
354;DHT22;165;53.592;10.044;2023-03-08T16:47:24;3.90;99.90
354;DHT22;165;53.592;10.044;2023-03-08T16:49:50;3.90;99.90
354;DHT22;165;53.592;10.044;2023-03-08T16:52:16;3.90;99.90
354;DHT22;165;53.592;10.044;2023-03-08T16:54:41;3.80;99.90
354;DHT22;165;53.592;10.044;2023-03-08T16:57:09;3.80;99.90
354;DHT22;165;53.592;10.044;2023-03-08T16:59:35;3.80;99.90
354;DHT22;165;53.592;10.044;2023-03-08T17:02:07;3.70;99.90
354;DHT22;165;53.592;10.044;2023-03-08T17:04:33;3.60;99.90
354;DHT22;165;53.592;10.044;2023-03-08T17:06:59;3.60;99.90
354;DHT22;165;53.592;10.044;2023-03-08T17:09:24;3.50;99.90
354;DHT22;165;53.592;10.044;2023-03-08T17:11:49;3.40;99.90
354;DHT22;165;53.592;10.044;2023-03-08T17:14:15;3.40;99.90
354;DHT22;165;53.592;10.044;2023-03-08T17:16:40;3.40;99.90
354;DHT22;165;53.592;10.044;2023-03-08T17:19:06;3.30;99.90
354;DHT22;165;53.592;10.044;2023-03-08T17:21:33;3.30;99.90
354;DHT22;165;53.592;10.044;2023-03-08T17:23:59;3.30;99.90
354;DHT22;165;53.592;10.044;2023-03-08T17:26:24;3.30;99.90
354;DHT22;165;53.592;10.044;2023-03-08T17:28:51;3.20;99.90
354;DHT22;165;53.592;10.044;2023-03-08T17:31:17;3.30;99.90
354;DHT22;165;53.592;10.044;2023-03-08T17:33:43;3.20;99.90
354;DHT22;165;53.592;10.044;2023-03-08T17:36:09;3.20;99.90
354;DHT22;165;53.592;10.044;2023-03-08T17:38:34;3.20;99.90
354;DHT22;165;53.592;10.044;2023-03-08T17:41:04;3.20;99.90
354;DHT22;165;53.592;10.044;2023-03-08T17:46:20;3.10;99.90
354;DHT22;165;53.592;10.044;2023-03-08T17:48:45;3.10;99.90
354;DHT22;165;53.592;10.044;2023-03-08T17:51:15;3.10;99.90
354;DHT22;165;53.592;10.044;2023-03-08T17:53:41;3.10;99.90
354;DHT22;165;53.592;10.044;2023-03-08T17:56:26;2.90;99.90
354;DHT22;165;53.592;10.044;2023-03-08T17:58:52;3.00;99.90
354;DHT22;165;53.592;10.044;2023-03-08T18:01:19;2.90;99.90
354;DHT22;165;53.592;10.044;2023-03-08T18:03:45;2.90;99.90
354;DHT22;165;53.592;10.044;2023-03-08T18:06:24;2.90;99.90
354;DHT22;165;53.592;10.044;2023-03-08T18:08:51;2.90;99.90
354;DHT22;165;53.592;10.044;2023-03-08T18:11:16;2.90;99.90
354;DHT22;165;53.592;10.044;2023-03-08T18:13:41;2.80;99.90
354;DHT22;165;53.592;10.044;2023-03-08T18:16:07;2.90;99.90
354;DHT22;165;53.592;10.044;2023-03-08T18:18:32;2.90;99.90
354;DHT22;165;53.592;10.044;2023-03-08T18:20:58;2.90;99.90
354;DHT22;165;53.592;10.044;2023-03-08T18:23:26;2.90;99.90
354;DHT22;165;53.592;10.044;2023-03-08T18:25:56;2.90;99.90
354;DHT22;165;53.592;10.044;2023-03-08T18:28:21;2.90;99.90
354;DHT22;165;53.592;10.044;2023-03-08T18:31:11;3.00;99.90
354;DHT22;165;53.592;10.044;2023-03-08T19:38:20;2.00;99.90
354;DHT22;165;53.592;10.044;2023-03-08T19:40:46;2.00;99.90
354;DHT22;165;53.592;10.044;2023-03-08T19:43:11;1.90;99.90
354;DHT22;165;53.592;10.044;2023-03-08T19:45:36;2.00;99.90
354;DHT22;165;53.592;10.044;2023-03-08T19:48:02;2.00;99.90
354;DHT22;165;53.592;10.044;2023-03-08T19:50:27;2.00;99.90
354;DHT22;165;53.592;10.044;2023-03-08T19:52:53;1.90;99.90
354;DHT22;165;53.592;10.044;2023-03-08T19:55:20;1.90;99.90
354;DHT22;165;53.592;10.044;2023-03-08T19:57:46;1.90;99.90
354;DHT22;165;53.592;10.044;2023-03-08T20:00:11;1.90;99.90
354;DHT22;165;53.592;10.044;2023-03-08T20:02:40;1.90;99.90
354;DHT22;165;53.592;10.044;2023-03-08T20:05:05;1.90;99.90
354;DHT22;165;53.592;10.044;2023-03-08T20:07:31;1.90;99.90
354;DHT22;165;53.592;10.044;2023-03-08T20:09:57;1.90;99.90
354;DHT22;165;53.592;10.044;2023-03-08T20:12:22;1.90;99.90
354;DHT22;165;53.592;10.044;2023-03-08T20:14:47;1.90;99.90
354;DHT22;165;53.592;10.044;2023-03-08T20:17:13;1.90;99.90
354;DHT22;165;53.592;10.044;2023-03-08T20:19:38;2.00;99.90
354;DHT22;165;53.592;10.044;2023-03-08T20:22:04;2.00;99.90
354;DHT22;165;53.592;10.044;2023-03-08T20:24:29;2.00;99.90
354;DHT22;165;53.592;10.044;2023-03-08T20:26:55;2.00;99.90
354;DHT22;165;53.592;10.044;2023-03-08T20:29:21;1.90;99.90
354;DHT22;165;53.592;10.044;2023-03-08T20:31:46;1.90;99.90
354;DHT22;165;53.592;10.044;2023-03-08T20:34:12;2.00;99.90
354;DHT22;165;53.592;10.044;2023-03-08T20:36:38;1.90;99.90
354;DHT22;165;53.592;10.044;2023-03-08T20:39:03;1.90;99.90
354;DHT22;165;53.592;10.044;2023-03-08T20:41:29;1.90;99.90
354;DHT22;165;53.592;10.044;2023-03-08T20:43:54;1.90;99.90
354;DHT22;165;53.592;10.044;2023-03-08T20:46:22;1.90;99.90
354;DHT22;165;53.592;10.044;2023-03-08T20:48:48;1.90;99.90
354;DHT22;165;53.592;10.044;2023-03-08T20:51:18;1.90;99.90
354;DHT22;165;53.592;10.044;2023-03-08T20:53:44;1.90;99.90
354;DHT22;165;53.592;10.044;2023-03-08T20:56:16;1.90;99.90
354;DHT22;165;53.592;10.044;2023-03-08T20:58:42;1.90;99.90
354;DHT22;165;53.592;10.044;2023-03-08T21:01:20;1.90;99.90
354;DHT22;165;53.592;10.044;2023-03-08T21:04:01;1.90;99.90
354;DHT22;165;53.592;10.044;2023-03-08T21:06:30;1.80;99.90
354;DHT22;165;53.592;10.044;2023-03-08T21:08:59;1.80;99.90
354;DHT22;165;53.592;10.044;2023-03-08T21:11:31;1.80;99.90
354;DHT22;165;53.592;10.044;2023-03-08T21:13:59;1.80;99.90
354;DHT22;165;53.592;10.044;2023-03-08T21:16:34;1.80;99.90
354;DHT22;165;53.592;10.044;2023-03-08T21:19:02;1.80;99.90
354;DHT22;165;53.592;10.044;2023-03-08T21:24:38;1.70;99.90
354;DHT22;165;53.592;10.044;2023-03-08T21:27:03;1.80;99.90
354;DHT22;165;53.592;10.044;2023-03-08T21:29:29;1.80;99.90
354;DHT22;165;53.592;10.044;2023-03-08T21:31:57;1.80;99.90
354;DHT22;165;53.592;10.044;2023-03-08T21:34:22;1.70;99.90
354;DHT22;165;53.592;10.044;2023-03-08T21:36:48;1.70;99.90
354;DHT22;165;53.592;10.044;2023-03-08T21:39:14;1.70;99.90
354;DHT22;165;53.592;10.044;2023-03-08T21:41:41;1.70;99.90
354;DHT22;165;53.592;10.044;2023-03-08T21:44:12;1.70;99.90
354;DHT22;165;53.592;10.044;2023-03-08T21:46:39;1.70;99.90
354;DHT22;165;53.592;10.044;2023-03-08T21:49:05;1.60;99.90
354;DHT22;165;53.592;10.044;2023-03-08T21:51:32;1.60;99.90
354;DHT22;165;53.592;10.044;2023-03-08T21:53:58;1.70;99.90
354;DHT22;165;53.592;10.044;2023-03-08T21:56:24;1.60;99.90
354;DHT22;165;53.592;10.044;2023-03-08T21:59:02;1.50;99.90
354;DHT22;165;53.592;10.044;2023-03-08T22:01:29;1.50;99.90
354;DHT22;165;53.592;10.044;2023-03-08T22:03:55;1.50;99.90
354;DHT22;165;53.592;10.044;2023-03-08T22:06:21;1.50;99.90
354;DHT22;165;53.592;10.044;2023-03-08T22:08:47;1.50;99.90
354;DHT22;165;53.592;10.044;2023-03-08T22:11:13;1.50;99.90
354;DHT22;165;53.592;10.044;2023-03-08T22:13:39;1.50;99.90
354;DHT22;165;53.592;10.044;2023-03-08T22:16:05;1.50;99.90
354;DHT22;165;53.592;10.044;2023-03-08T22:18:31;1.50;99.90
354;DHT22;165;53.592;10.044;2023-03-08T22:20:57;1.50;99.90
354;DHT22;165;53.592;10.044;2023-03-08T22:23:22;1.60;99.90
354;DHT22;165;53.592;10.044;2023-03-08T22:25:51;1.60;99.90
354;DHT22;165;53.592;10.044;2023-03-08T22:28:23;1.60;99.90
354;DHT22;165;53.592;10.044;2023-03-08T22:30:53;1.60;99.90
